Hayden, CO (81639)

04:34 AM MST am 31. Januar 2015 (GMT -0700)
HAYDEN, COLORADO (DOWN TOWN) | Change Station
CLOSE
Current Station
Persönliche Wetterstationen
Location: Hayden, CO
Höhe: 6352 ft
Wetterstationen in der Umgebung
aktive Warnung: Dense Fog Advisory

Höhe 6352 ft 40.50 °N, 107.25 °W | Updated 2 seconds ago

Overcast
Bedeckt
31.5 °F
gefühlte 32 °F
N
0.0
Wind Wechselnd Wind aus Nord-Nordost
Gusts 0.0 mph

Heute
Max. -- | schwach -- °F
--% Regenrisiko
Gestern
Max. -- | schwach -- °F
Precip. -- inch
7:19 AM 5:25 PM
Zweites Viertel, 89% visible
Druck 29.88 inch
Sichtweite 0.5 Meilen
Wolken Bedeckt 300 ft
Windchill 32 °F
Taupunkt 31 °F
Feuchtigkeit 97%
Regen 0.00 inch
Schneehöhe Nicht verfügbar..
UV 0 von 12
Pollen 1.00 von 12
Luftqualität Nicht verfügbar..
Flu Activity Nicht verfügbar..
METAR KHDN 311115Z AUTO 30003KT 1/2SM OVC003 00/M02 A2988 RMK AO1

More Conditions Fewer Conditions

Druck 29.88 inch
Sichtweite 0.5 Meilen
Wolken Bedeckt 300 ft
Windchill 32 °F
Taupunkt 31 °F
Feuchtigkeit 97%
Regen 0.00 inch
Schneehöhe Nicht verfügbar..
UV 0 von 12
Pollen 1.00 von 12
Luftqualität Nicht verfügbar..
Flu Activity Nicht verfügbar..
METAR KHDN 311115Z AUTO 30003KT 1/2SM OVC003 00/M02 A2988 RMK AO1

More Conditions Fewer Conditions

10-Day Weather Forecast

Almanac

Astronomie

Jan. 31, 2015 Aufgang Untergang
Genaue Zeit
Bürgerliche Dämmerung
Nautische Dämmerung
Astronomische Dämmerung
Mond
Länge des sichtbaren Lichts
Tageslänge
Tomorrow will be .
, % of the Moon is Illuminated

Heutige Rekorde

State Highs State Lows

Community

WunderPhotos

Upload Photos

1,792,032 Fotos hochgeladen!

WunderBlogs® & News

Nearby

Luftqualität

  Luftqualität LQ Index Schadstoff
Not available.

Schneehöhe

Station Depth Höhe

Erdbebenaktivität

Stadt Distance Mag. Time & Date
Minimum magnitude displayed is 2.5.

küstennahe Wassertemperaturen

Ort Temperatur

Wetterstationen in der Umgebung